Time;durP1;ratioP1;P1;durP2;ratioP2;P2;SDS_P1;SDS_P2;PMS_P1;PMS_P2;Temp;Humidity;BMP_temperature;BMP_pressure;BME280_temperature;BME280_humidity;BME280_pressure;Samples;Min_cycle;Max_cycle;Signal;HPM_P1;HPM_P2
2022/04/06 00:01:39;;;;;;;23.25;7.30;;;;;;;8.93;94.26;100293.16;5028954;28;20413;-81
2022/04/06 00:04:15;;;;;;;23.30;7.30;;;;;;;8.93;94.14;100291.28;5032283;28;20064;-80
2022/04/06 00:06:53;;;;;;;;;;;;;;;;;;;;;
2022/04/06 00:09:39;;;;;;;27.55;7.32;;;;;;;9.01;93.30;100287.44;5032050;28;20416;-83
2022/04/06 00:12:14;;;;;;;20.90;6.95;;;;;;;8.92;93.49;100278.84;5031023;28;20120;-82
2022/04/06 00:14:47;;;;;;;23.67;7.28;;;;;;;8.94;93.25;100279.44;5031088;28;20029;-83
2022/04/06 00:17:41;;;;;;;22.52;7.63;;;;;;;8.88;93.60;100274.97;5032037;28;20029;-84
2022/04/06 00:20:30;;;;;;;28.92;7.90;;;;;;;8.87;93.88;100278.69;5029816;28;20076;-81
2022/04/06 00:25:57;;;;;;;20.85;6.32;;;;;;;8.92;93.59;100272.63;5032347;28;20087;-80
2022/04/06 00:28:31;;;;;;;20.80;7.25;;;;;;;8.95;93.09;100278.41;5030761;28;20491;-79
2022/04/06 00:31:03;;;;;;;27.55;6.75;;;;;;;8.89;93.41;100276.59;5032288;28;20497;-80
2022/04/06 00:33:28;;;;;;;24.65;7.13;;;;;;;8.87;93.60;100270.59;5032103;28;20112;-79
2022/04/06 00:35:59;;;;;;;24.00;7.53;;;;;;;8.81;93.86;100277.72;5031054;28;20077;-79
2022/04/06 00:38:24;;;;;;;26.90;6.93;;;;;;;8.81;94.31;100269.63;5034216;28;20041;-82
2022/04/06 00:44:26;;;;;;;;;;;;;;;;;;;;;
2022/04/06 00:46:58;;;;;;;25.95;6.80;;;;;;;8.85;93.12;100261.94;5055837;28;19916;-82
2022/04/06 00:49:51;;;;;;;24.08;6.65;;;;;;;8.85;93.37;100262.75;5054677;28;20033;-80
2022/04/06 00:52:59;;;;;;;;;;;;;;;;;;;;;
2022/04/06 00:55:32;;;;;;;23.63;6.80;;;;;;;8.79;93.39;100257.44;5034455;28;20044;-81
2022/04/06 00:57:58;;;;;;;23.15;6.80;;;;;;;8.82;93.59;100262.38;5034470;28;20699;-79
2022/04/06 01:00:37;;;;;;;22.05;6.43;;;;;;;8.79;93.31;100262.84;5034217;28;20029;-79
2022/04/06 01:03:22;;;;;;;26.65;7.10;;;;;;;8.84;92.90;100257.56;5040407;28;20071;-79
2022/04/06 01:05:53;;;;;;;19.88;6.03;;;;;;;8.79;93.45;100252.88;5055854;28;20131;-81
2022/04/06 01:08:27;;;;;;;20.27;6.27;;;;;;;8.87;92.29;100249.03;5053837;28;20484;-82
2022/04/06 01:11:07;;;;;;;23.17;6.80;;;;;;;8.76;93.37;100241.72;5042900;28;20039;-81
2022/04/06 01:13:49;;;;;;;19.42;5.97;;;;;;;8.76;92.94;100253.31;5034401;28;20041;-81
2022/04/06 01:16:43;;;;;;;23.05;5.80;;;;;;;8.76;93.43;100241.72;5034001;28;20366;-82
2022/04/06 01:19:22;;;;;;;22.23;6.10;;;;;;;8.77;92.42;100244.19;5034390;28;20384;-80
2022/04/06 01:22:07;;;;;;;23.75;5.70;;;;;;;8.75;92.95;100231.97;5055231;28;20080;-82
2022/04/06 01:24:40;;;;;;;17.83;5.30;;;;;;;8.73;93.06;100240.28;5054791;28;20033;-82
2022/04/06 01:27:29;;;;;;;19.98;5.60;;;;;;;8.73;92.57;100237.59;5054805;28;20036;-81
2022/04/06 01:30:01;;;;;;;19.17;5.68;;;;;;;8.70;92.45;100227.25;5050069;28;20059;-81
2022/04/06 01:32:37;;;;;;;20.25;5.55;;;;;;;8.75;92.62;100240.06;5033942;28;20033;-83
2022/04/06 01:35:42;;;;;;;27.05;5.82;;;;;;;8.71;92.60;100228.06;5034086;28;20026;-82
2022/04/06 01:38:31;;;;;;;23.20;5.32;;;;;;;8.75;92.72;100230.09;5047692;28;20133;-80
2022/04/06 01:41:48;;;;;;;22.08;5.32;;;;;;;8.75;92.26;100234.66;5045176;28;20072;-79
2022/04/06 01:44:26;;;;;;;20.00;5.38;;;;;;;8.71;92.66;100233.47;5024702;28;20049;-80
2022/04/06 01:47:13;;;;;;;21.92;5.25;;;;;;;8.68;92.58;100232.88;5033559;28;20034;-80
2022/04/06 01:52:44;;;;;;;20.73;5.78;;;;;;;8.74;92.34;100233.00;5054460;28;20541;-83
2022/04/06 01:55:45;;;;;;;16.58;5.00;;;;;;;8.76;91.72;100236.31;5054765;28;20048;-80
2022/04/06 01:58:30;;;;;;;18.88;5.13;;;;;;;8.66;91.55;100226.88;5054306;28;20094;-82
2022/04/06 02:01:11;;;;;;;25.63;5.50;;;;;;;8.63;91.82;100221.13;5038372;28;20041;-81
2022/04/06 02:04:07;;;;;;;;;;;;;;;;;;;;;
2022/04/06 02:06:55;;;;;;;20.80;4.60;;;;;;;8.69;91.27;100223.72;5033394;28;20052;-82
2022/04/06 02:09:25;;;;;;;19.48;5.07;;;;;;;8.65;91.30;100219.00;5032845;28;20044;-80
2022/04/06 02:12:12;;;;;;;19.92;4.40;;;;;;;8.63;91.19;100221.13;5051986;28;20052;-83
2022/04/06 02:14:42;;;;;;;16.35;4.80;;;;;;;8.64;90.69;100207.41;5053499;28;20064;-81
2022/04/06 02:17:31;;;;;;;21.30;5.03;;;;;;;8.64;91.77;100206.59;5054253;28;20029;-81
2022/04/06 02:20:00;;;;;;;19.10;4.75;;;;;;;8.63;90.47;100211.16;5050563;28;20029;-82
2022/04/06 02:22:25;;;;;;;17.45;4.28;;;;;;;8.62;90.80;100214.91;5035255;28;20057;-79
2022/04/06 02:24:53;;;;;;;16.90;4.47;;;;;;;8.62;90.86;100209.53;5044849;28;20025;-79
2022/04/06 02:27:18;;;;;;;17.77;4.45;;;;;;;8.60;90.94;100205.41;5052794;28;20120;-82
2022/04/06 02:29:55;;;;;;;18.63;4.43;;;;;;;8.58;90.96;100202.94;5053250;28;20503;-80
2022/04/06 02:32:21;;;;;;;16.30;4.57;;;;;;;8.61;90.43;100205.16;5053868;28;20372;-76
2022/04/06 02:34:46;;;;;;;14.73;4.20;;;;;;;8.61;90.83;100210.56;5054173;28;20039;-76
2022/04/06 02:37:12;;;;;;;19.42;4.55;;;;;;;8.61;89.99;100213.25;5051291;28;20480;-78
2022/04/06 02:39:38;;;;;;;19.27;4.07;;;;;;;8.62;89.80;100206.81;5051052;28;20063;-79
2022/04/06 02:42:04;;;;;;;19.73;4.47;;;;;;;8.57;90.10;100201.28;5052479;28;20479;-79
2022/04/06 02:44:29;;;;;;;18.63;4.30;;;;;;;8.59;89.54;100204.59;5052580;28;20427;-79
2022/04/06 02:46:54;;;;;;;21.20;4.30;;;;;;;8.54;89.82;100204.44;5053797;28;20024;-77
2022/04/06 02:49:20;;;;;;;20.35;4.38;;;;;;;8.52;89.83;100193.06;5052135;28;20383;-79
2022/04/06 02:51:45;;;;;;;16.70;4.28;;;;;;;8.53;89.26;100194.72;5036230;28;20037;-78
2022/04/06 02:54:11;;;;;;;13.52;3.90;;;;;;;8.51;89.67;100188.69;5032594;28;20056;-78
2022/04/06 02:56:36;;;;;;;16.05;4.18;;;;;;;8.50;89.65;100187.06;5033565;28;20030;-78
2022/04/06 02:59:02;;;;;;;18.88;3.83;;;;;;;8.50;89.58;100195.97;5033960;28;20037;-77
2022/04/06 03:01:27;;;;;;;19.40;4.80;;;;;;;8.48;89.11;100186.47;5045940;28;20060;-80
2022/04/06 03:03:53;;;;;;;17.67;3.55;;;;;;;8.50;88.87;100184.38;5053581;28;20044;-78
2022/04/06 03:06:19;;;;;;;15.73;3.70;;;;;;;8.47;88.64;100190.19;5055466;28;20051;-78
2022/04/06 03:08:44;;;;;;;15.20;3.72;;;;;;;8.48;88.60;100189.16;5060542;28;20036;-78
2022/04/06 03:11:10;;;;;;;18.70;3.65;;;;;;;8.44;88.26;100172.63;5048810;28;20041;-78
2022/04/06 03:13:35;;;;;;;14.82;4.00;;;;;;;8.43;88.41;100180.91;5033368;28;20025;-78
2022/04/06 03:16:01;;;;;;;15.88;3.55;;;;;;;8.43;88.10;100183.59;5033504;28;20530;-79
2022/04/06 03:18:26;;;;;;;16.02;3.97;;;;;;;8.42;88.09;100168.47;5034565;28;20086;-79
2022/04/06 03:20:51;;;;;;;18.73;3.92;;;;;;;8.41;88.83;100167.66;5053302;28;20033;-78
2022/04/06 03:23:17;;;;;;;16.52;4.18;;;;;;;8.41;88.59;100172.22;5051612;28;20036;-78
2022/04/06 03:25:42;;;;;;;18.48;3.75;;;;;;;8.41;87.86;100161.41;5053164;28;20036;-78
2022/04/06 03:28:08;;;;;;;15.15;3.40;;;;;;;8.42;87.02;100163.06;5051044;28;20036;-79
2022/04/06 03:30:33;;;;;;;13.20;3.50;;;;;;;8.41;86.42;100158.72;5033032;28;20366;-81
2022/04/06 03:32:59;;;;;;;18.38;3.50;;;;;;;8.42;87.09;100153.09;5032885;28;20163;-75
2022/04/06 03:35:24;;;;;;;14.00;3.45;;;;;;;8.39;87.08;100150.88;5031747;28;20479;-76
2022/04/06 03:37:50;;;;;;;16.02;3.40;;;;;;;8.37;86.60;100147.59;5033212;28;20029;-78
2022/04/06 03:40:17;;;;;;;17.35;3.58;;;;;;;8.37;86.16;100142.19;5048861;28;20419;-78
2022/04/06 03:42:42;;;;;;;13.90;3.50;;;;;;;8.36;86.42;100142.41;5052937;28;20033;-78
2022/04/06 03:45:10;;;;;;;13.75;3.40;;;;;;;8.38;85.86;100137.63;5052621;28;20439;-78
2022/04/06 03:47:36;;;;;;;15.07;3.30;;;;;;;8.38;86.27;100137.63;5052709;28;20029;-78
2022/04/06 03:50:04;;;;;;;13.23;3.28;;;;;;;8.37;86.13;100130.59;5036982;28;20037;-78
2022/04/06 03:52:29;;;;;;;15.00;3.63;;;;;;;8.36;86.30;100139.72;5032504;28;20029;-78
2022/04/06 03:54:55;;;;;;;12.77;3.20;;;;;;;8.40;85.27;100143.63;5031568;28;20044;-78
2022/04/06 03:57:21;;;;;;;14.02;3.47;;;;;;;8.34;85.67;100131.88;5031197;28;20029;-78
2022/04/06 03:59:46;;;;;;;15.30;3.53;;;;;;;8.32;85.62;100137.50;5032729;28;20507;-78
2022/04/06 04:02:15;;;;;;;14.60;3.35;;;;;;;8.29;85.28;100129.84;5030303;28;20040;-78
2022/04/06 04:04:40;;;;;;;14.02;3.17;;;;;;;8.33;86.45;100128.34;5032503;28;20060;-78
2022/04/06 04:07:07;;;;;;;18.25;3.88;;;;;;;8.36;84.75;100137.03;5032774;28;20105;-78
2022/04/06 04:09:33;;;;;;;15.45;4.15;;;;;;;8.36;85.17;100134.34;5041471;28;20024;-78
2022/04/06 04:11:58;;;;;;;13.13;3.60;;;;;;;8.33;85.00;100128.34;5052168;28;20037;-78
2022/04/06 04:14:24;;;;;;;15.05;3.35;;;;;;;8.32;85.70;100129.41;5051111;28;20040;-78
2022/04/06 04:16:49;;;;;;;16.58;3.53;;;;;;;8.35;85.23;100138.91;5050312;28;20036;-77
2022/04/06 04:19:15;;;;;;;12.13;3.15;;;;;;;8.36;85.43;100137.03;5031192;28;20087;-78
2022/04/06 04:21:41;;;;;;;11.55;2.90;;;;;;;8.34;86.13;100138.06;5032283;28;20223;-78
2022/04/06 04:24:10;;;;;;;15.13;3.40;;;;;;;8.33;86.06;100131.06;5031139;28;20128;-78
2022/04/06 04:26:38;;;;;;;15.90;3.55;;;;;;;8.36;86.51;100128.94;5032164;28;20040;-78
2022/04/06 04:29:04;;;;;;;12.38;3.53;;;;;;;8.39;86.30;100120.41;5051701;28;20028;-77
2022/04/06 04:31:30;;;;;;;15.23;4.28;;;;;;;8.37;86.78;100120.63;5051854;28;20071;-78
2022/04/06 04:33:58;;;;;;;14.88;4.10;;;;;;;8.41;86.88;100123.69;5050852;28;20061;-78
2022/04/06 04:36:24;;;;;;;23.13;4.40;;;;;;;8.41;86.87;100120.97;5051834;28;20063;-78
2022/04/06 04:38:49;;;;;;;13.70;4.10;;;;;;;8.37;87.81;100115.22;5032939;28;20068;-78
2022/04/06 04:41:15;;;;;;;18.45;4.75;;;;;;;8.40;87.87;100112.09;5031082;28;20029;-78
2022/04/06 04:43:40;;;;;;;22.70;4.60;;;;;;;8.40;87.62;100114.78;5030754;28;20044;-78
2022/04/06 04:46:07;;;;;;;22.13;5.07;;;;;;;8.39;88.08;100113.13;5032325;28;20037;-78
2022/04/06 04:48:32;;;;;;;21.63;4.82;;;;;;;8.39;88.20;100107.72;5046704;28;20029;-78
2022/04/06 04:50:58;;;;;;;16.10;4.90;;;;;;;8.40;88.71;100108.56;5051824;28;20048;-77
2022/04/06 04:53:24;;;;;;;14.65;4.63;;;;;;;8.39;87.87;100098.81;5050821;28;20040;-77
2022/04/06 04:55:49;;;;;;;19.95;5.47;;;;;;;8.37;88.45;100101.75;5051741;28;20060;-78
2022/04/06 04:58:14;;;;;;;14.52;4.88;;;;;;;8.38;88.33;100102.56;5039202;28;20033;-79
2022/04/06 05:00:40;;;;;;;20.73;5.60;;;;;;;8.36;88.35;100097.41;5031601;28;20017;-78
2022/04/06 05:03:05;;;;;;;24.08;5.90;;;;;;;8.39;88.75;100098.81;5051480;28;20076;-79
2022/04/06 05:05:31;;;;;;;23.05;5.78;;;;;;;8.37;88.85;100103.63;5050181;28;20124;-79
2022/04/06 05:07:58;;;;;;;24.67;5.82;;;;;;;8.39;88.48;100088.84;5051932;28;20082;-78
2022/04/06 05:10:25;;;;;;;24.25;5.97;;;;;;;8.40;88.67;100092.41;5050313;28;20033;-79
2022/04/06 05:12:51;;;;;;;21.80;5.50;;;;;;;8.36;88.99;100088.50;5035642;28;20030;-78
2022/04/06 05:15:16;;;;;;;14.80;4.55;;;;;;;8.40;89.04;100092.41;5030704;28;20029;-79
2022/04/06 05:17:41;;;;;;;19.42;5.10;;;;;;;8.40;88.73;100097.78;5031560;28;20026;-79
2022/04/06 05:20:08;;;;;;;20.35;5.22;;;;;;;8.38;88.46;100095.31;5031903;28;20502;-78
2022/04/06 05:22:33;;;;;;;22.17;5.60;;;;;;;8.38;88.02;100087.22;5031416;28;20037;-78
2022/04/06 05:25:00;;;;;;;15.95;4.90;;;;;;;8.39;88.25;100085.34;5033292;28;20479;-78
2022/04/06 05:27:25;;;;;;;16.67;4.65;;;;;;;8.43;87.66;100083.84;5034059;28;20021;-78
2022/04/06 05:29:51;;;;;;;18.67;4.95;;;;;;;8.43;87.34;100083.84;5035728;28;20074;-78
2022/04/06 05:32:16;;;;;;;16.73;4.38;;;;;;;8.41;87.42;100091.31;5049881;28;20106;-78
2022/04/06 05:34:41;;;;;;;17.58;4.35;;;;;;;8.38;87.80;100081.84;5054820;28;20033;-78
2022/04/06 05:37:06;;;;;;;17.27;4.88;;;;;;;8.40;86.63;100079.72;5055378;28;20473;-78
2022/04/06 05:39:32;;;;;;;18.48;4.32;;;;;;;8.40;87.23;100082.44;5053772;28;20044;-78
2022/04/06 05:41:57;;;;;;;18.77;4.57;;;;;;;8.38;88.02;100087.22;5042616;28;20048;-79
2022/04/06 05:44:22;;;;;;;16.70;4.28;;;;;;;8.41;86.92;100077.84;5035437;28;20432;-78
2022/04/06 05:46:47;;;;;;;16.58;4.00;;;;;;;8.39;87.10;100077.25;5034711;28;20030;-78
2022/04/06 05:49:13;;;;;;;14.85;3.97;;;;;;;8.41;87.09;100078.69;5034902;28;20415;-79
2022/04/06 05:51:38;;;;;;;17.20;4.20;;;;;;;8.39;86.41;100079.97;5035366;28;20031;-78
2022/04/06 05:54:04;;;;;;;12.15;3.25;;;;;;;8.41;85.32;100077.84;5033551;28;20038;-78
2022/04/06 05:56:30;;;;;;;16.45;4.35;;;;;;;8.42;85.77;100079.50;5033459;28;20033;-79
2022/04/06 05:58:56;;;;;;;16.98;3.80;;;;;;;8.42;84.62;100074.09;5045802;28;20029;-78
2022/04/06 06:01:21;;;;;;;14.40;3.22;;;;;;;8.45;85.46;100074.50;5052569;28;20040;-77
2022/04/06 06:03:47;;;;;;;15.65;3.30;;;;;;;8.44;85.82;100077.41;5053107;28;20536;-78
2022/04/06 06:06:12;;;;;;;10.57;3.40;;;;;;;8.44;84.13;100082.81;5054892;28;20478;-78
2022/04/06 06:08:37;;;;;;;12.48;2.92;;;;;;;8.52;82.69;100094.09;5053685;28;20058;-78
2022/04/06 06:11:03;;;;;;;15.90;3.15;;;;;;;8.44;82.05;100077.41;5054631;28;20116;-78
2022/04/06 06:13:29;;;;;;;10.45;2.45;;;;;;;8.50;81.32;100092.69;5054475;28;20448;-77
2022/04/06 06:15:55;;;;;;;10.40;2.33;;;;;;;8.48;81.29;100092.94;5053380;28;20021;-78
2022/04/06 06:18:20;;;;;;;8.18;2.22;;;;;;;8.47;81.25;100088.59;5047868;28;20026;-78
2022/04/06 06:20:46;;;;;;;13.88;2.83;;;;;;;8.55;79.86;100100.09;5034426;28;20037;-78
2022/04/06 06:23:11;;;;;;;5.53;2.05;;;;;;;8.57;78.16;100088.00;5033371;28;20029;-78
2022/04/06 06:25:37;;;;;;;12.73;2.22;;;;;;;8.56;79.05;100097.16;5032820;28;20025;-78
2022/04/06 06:28:02;;;;;;;11.80;2.05;;;;;;;8.57;77.15;100088.00;5034783;28;20052;-78
2022/04/06 06:30:28;;;;;;;8.95;1.98;;;;;;;8.65;76.54;100087.69;5034106;28;20125;-78
2022/04/06 06:32:54;;;;;;;8.70;1.90;;;;;;;8.59;76.68;100085.91;5033911;28;20587;-78
2022/04/06 06:35:20;;;;;;;7.07;2.08;;;;;;;8.69;75.78;100094.25;5032743;28;20083;-78
2022/04/06 06:37:50;;;;;;;9.90;1.98;;;;;;;8.70;76.08;100092.41;5034932;28;20026;-78
2022/04/06 06:40:17;;;;;;;6.60;1.92;;;;;;;8.68;74.92;100078.28;5053887;28;20556;-79
2022/04/06 06:42:42;;;;;;;7.55;1.73;;;;;;;8.69;75.12;100080.75;5052382;28;20033;-79
2022/04/06 06:45:08;;;;;;;8.38;1.58;;;;;;;8.67;75.24;100077.47;5052831;28;20029;-79
2022/04/06 06:47:33;;;;;;;10.57;2.30;;;;;;;8.70;74.96;100070.81;5052393;28;20111;-80
2022/04/06 06:49:59;;;;;;;4.32;1.60;;;;;;;8.72;74.54;100067.88;5034061;28;20083;-79
2022/04/06 06:52:24;;;;;;;7.57;1.80;;;;;;;8.68;74.22;100062.97;5034082;28;20037;-79
2022/04/06 06:54:49;;;;;;;10.35;2.08;;;;;;;8.72;75.22;100067.88;5032847;28;20037;-79
2022/04/06 06:57:14;;;;;;;6.57;1.42;;;;;;;8.75;74.75;100056.63;5033783;28;20030;-80
2022/04/06 06:59:41;;;;;;;7.65;1.80;;;;;;;8.72;74.65;100060.59;5049607;28;20029;-79
2022/04/06 07:02:07;;;;;;;9.00;2.20;;;;;;;8.75;74.15;100062.03;5050144;28;20056;-79
2022/04/06 07:04:32;;;;;;;6.07;1.90;;;;;;;8.75;73.79;100062.84;5052954;28;20420;-79
2022/04/06 07:06:58;;;;;;;7.25;2.15;;;;;;;8.78;74.11;100072.34;5053668;28;20043;-79
2022/04/06 07:09:23;;;;;;;7.72;1.73;;;;;;;8.80;74.01;100070.22;5038872;28;20034;-78
2022/04/06 07:11:48;;;;;;;7.05;1.80;;;;;;;8.80;74.76;100067.53;5032326;28;20039;-80
2022/04/06 07:14:13;;;;;;;11.93;2.03;;;;;;;8.80;74.46;100064.84;5033404;28;20037;-80
2022/04/06 07:16:39;;;;;;;5.63;2.10;;;;;;;8.77;75.05;100066.13;5032058;28;20048;-80
2022/04/06 07:19:04;;;;;;;10.48;2.42;;;;;;;8.75;78.07;100062.03;5042969;28;20094;-79
2022/04/06 07:21:29;;;;;;;10.45;2.92;;;;;;;8.76;79.16;100056.41;5052027;28;20044;-80
2022/04/06 07:23:55;;;;;;;8.95;2.63;;;;;;;8.78;79.20;100058.84;5053209;28;20514;-80
2022/04/06 07:26:21;;;;;;;12.50;3.33;;;;;;;8.69;80.62;100056.47;5052984;28;20029;-80
2022/04/06 07:28:47;;;;;;;8.75;2.60;;;;;;;8.72;81.30;100049.81;5044473;28;20044;-80
2022/04/06 07:31:12;;;;;;;13.85;3.42;;;;;;;8.71;81.70;100052.75;5032926;28;20029;-80
2022/04/06 07:33:38;;;;;;;14.85;3.60;;;;;;;8.67;82.96;100050.50;5033129;28;20044;-80
2022/04/06 07:36:05;;;;;;;10.18;3.35;;;;;;;8.68;82.21;100041.38;5032972;28;20420;-79
2022/04/06 07:38:31;;;;;;;12.77;3.55;;;;;;;8.70;82.48;100043.84;5038859;28;20031;-79
2022/04/06 07:40:56;;;;;;;11.20;3.67;;;;;;;8.68;82.84;100044.06;5052169;28;20455;-80
2022/04/06 07:43:25;;;;;;;10.68;3.33;;;;;;;8.67;83.30;100038.91;5051448;28;20057;-80
2022/04/06 07:45:50;;;;;;;14.25;3.40;;;;;;;8.67;82.53;100039.72;5052268;28;20032;-79
2022/04/06 07:48:15;;;;;;;19.27;4.15;;;;;;;8.69;83.14;100032.22;5048642;28;20029;-80
2022/04/06 07:50:41;;;;;;;14.68;3.78;;;;;;;8.75;82.74;100021.56;5031543;28;20029;-80
2022/04/06 07:53:06;;;;;;;14.10;3.47;;;;;;;8.73;83.19;100018.28;5048543;28;20468;-80
2022/04/06 07:55:33;;;;;;;12.52;3.78;;;;;;;8.75;82.88;100014.28;5051531;28;20059;-80
2022/04/06 07:57:58;;;;;;;10.07;2.88;;;;;;;8.86;83.11;100015.34;5051070;28;20033;-80
2022/04/06 08:00:23;;;;;;;11.73;3.70;;;;;;;8.90;82.71;100016.53;5049965;28;20076;-79
2022/04/06 08:02:50;;;;;;;6.70;2.80;;;;;;;8.96;82.28;100002.09;5049624;28;20047;-80
2022/04/06 08:05:17;;;;;;;12.82;3.38;;;;;;;9.02;82.48;100014.63;5052732;28;20035;-79
2022/04/06 08:07:44;;;;;;;10.80;3.10;;;;;;;9.04;82.02;100012.53;5051008;28;20052;-80
2022/04/06 08:10:12;;;;;;;9.43;3.00;;;;;;;9.04;82.04;100007.16;5051331;28;20033;-80
2022/04/06 08:12:38;;;;;;;9.52;3.25;;;;;;;9.07;82.09;100007.72;5039535;28;20030;-81
2022/04/06 08:15:04;;;;;;;10.35;3.17;;;;;;;9.07;82.09;99999.63;5032739;28;20463;-78
2022/04/06 08:17:41;;;;;;;6.80;2.60;;;;;;;9.08;81.93;100012.88;5032861;28;20029;-79
2022/04/06 08:20:08;;;;;;;14.25;3.22;;;;;;;9.05;81.73;100016.06;5032877;28;20114;-79
2022/04/06 08:22:34;;;;;;;13.88;2.90;;;;;;;9.04;81.27;100012.53;5043134;28;20041;-80
2022/04/06 08:24:59;;;;;;;11.57;3.10;;;;;;;9.08;81.95;100018.28;5034728;28;20033;-78
2022/04/06 08:27:27;;;;;;;11.45;2.75;;;;;;;9.07;81.67;100015.81;5051354;28;20033;-79
2022/04/06 08:29:52;;;;;;;12.85;3.05;;;;;;;9.04;81.13;100015.25;5050720;28;20036;-78
2022/04/06 08:32:18;;;;;;;11.38;3.15;;;;;;;8.98;81.87;100016.19;5050187;28;20392;-77
2022/04/06 08:34:43;;;;;;;14.50;2.88;;;;;;;8.98;81.22;100026.97;5053794;28;20079;-77
2022/04/06 08:37:08;;;;;;;8.27;2.78;;;;;;;8.96;81.99;100015.56;5055360;28;20025;-77
2022/04/06 08:39:34;;;;;;;10.27;3.17;;;;;;;8.94;81.59;100008.78;5040395;28;20025;-78
2022/04/06 08:42:00;;;;;;;12.73;2.88;;;;;;;8.90;82.52;100013.81;5031794;28;20026;-77
2022/04/06 08:44:26;;;;;;;14.38;3.60;;;;;;;8.95;82.61;100015.81;5032356;28;20527;-77
2022/04/06 08:46:52;;;;;;;14.40;3.38;;;;;;;8.96;82.38;100009.38;5043184;28;20032;-77
2022/04/06 08:49:19;;;;;;;9.32;2.60;;;;;;;9.04;81.98;100011.69;5055706;28;20064;-81
2022/04/06 08:51:45;;;;;;;9.38;3.17;;;;;;;9.07;81.81;100005.03;5053690;28;20111;-77
2022/04/06 08:54:11;;;;;;;9.98;2.97;;;;;;;9.08;82.61;100003.97;5030750;28;21638;-80
2022/04/06 08:56:36;;;;;;;12.25;3.53;;;;;;;9.14;82.73;100005.72;5048381;28;20068;-75
2022/04/06 08:59:03;;;;;;;15.55;2.70;;;;;;;9.17;81.69;100006.06;5054256;28;20109;-78
2022/04/06 09:01:33;;;;;;;12.45;3.10;;;;;;;9.17;81.85;99999.84;5052752;28;20491;-76
2022/04/06 09:04:00;;;;;;;12.25;2.90;;;;;;;9.17;82.32;100005.25;5042689;28;20064;-76
2022/04/06 09:06:26;;;;;;;9.05;2.78;;;;;;;9.18;81.79;100012.31;5051382;28;20044;-77
2022/04/06 09:08:51;;;;;;;12.50;2.63;;;;;;;9.11;82.72;100011.59;5053787;28;20041;-77
2022/04/06 09:11:18;;;;;;;7.10;2.60;;;;;;;9.16;82.56;100000.91;5045198;28;20033;-77
2022/04/06 09:13:46;;;;;;;11.38;3.20;;;;;;;9.13;84.44;99998.69;5037760;28;20037;-77
2022/04/06 09:16:14;;;;;;;13.43;3.28;;;;;;;9.15;83.76;100002.78;5037868;28;20433;-77
2022/04/06 09:18:44;;;;;;;7.88;2.47;;;;;;;9.20;83.07;99999.38;5035714;28;20061;-77
2022/04/06 09:21:12;;;;;;;10.95;3.45;;;;;;;9.19;84.25;100009.38;5017932;28;20052;-79
2022/04/06 09:23:38;;;;;;;10.65;2.70;;;;;;;9.19;83.83;100003.13;5035528;28;20113;-76
2022/04/06 09:26:13;;;;;;;17.98;3.17;;;;;;;9.17;84.06;100010.66;5035377;28;20108;-75
2022/04/06 09:28:44;;;;;;;11.45;3.10;;;;;;;9.16;83.69;100011.69;5034553;28;20083;-75
2022/04/06 09:31:13;;;;;;;13.95;2.90;;;;;;;9.13;83.67;99999.50;5036469;28;20044;-74
2022/04/06 09:33:41;;;;;;;11.48;2.88;;;;;;;9.15;83.93;100001.94;5054184;28;20209;-75
2022/04/06 09:36:20;;;;;;;11.20;3.03;;;;;;;9.18;83.36;99993.41;5055254;28;20037;-76
2022/04/06 09:38:47;;;;;;;11.95;3.20;;;;;;;9.17;83.40;100000.66;5053796;28;20031;-76
2022/04/06 09:41:15;;;;;;;7.80;3.08;;;;;;;9.18;83.38;99998.81;5051557;28;20037;-76
2022/04/06 09:43:41;;;;;;;9.85;3.08;;;;;;;9.20;84.13;100000.19;5035370;28;20037;-75
2022/04/06 09:49:14;;;;;;;8.57;2.80;;;;;;;9.28;82.75;99996.31;5034965;28;20049;-76
2022/04/06 09:51:42;;;;;;;11.07;2.92;;;;;;;9.26;82.97;99997.63;5041456;28;20472;-76
2022/04/06 09:54:09;;;;;;;14.75;3.03;;;;;;;9.30;83.74;99998.75;5049918;28;20393;-75
2022/04/06 09:56:36;;;;;;;12.55;2.90;;;;;;;9.32;84.47;100002.06;5034916;28;20473;-77
2022/04/06 09:59:03;;;;;;;7.25;2.70;;;;;;;9.31;83.42;99986.91;5034781;28;20109;-75
2022/04/06 10:01:33;;;;;;;9.85;3.05;;;;;;;9.28;84.31;99993.59;5031482;28;20481;-75
2022/04/06 10:04:11;;;;;;;12.23;3.35;;;;;;;9.35;84.03;99985.38;5035138;28;20108;-71
2022/04/06 10:06:38;;;;;;;11.75;2.97;;;;;;;9.37;84.77;99986.78;5054590;28;20025;-78
2022/04/06 10:09:09;;;;;;;6.53;2.70;;;;;;;9.31;85.48;99986.91;5054678;28;20033;-78
2022/04/06 10:11:35;;;;;;;9.60;2.70;;;;;;;9.28;85.77;99988.19;5054992;28;20025;-80
2022/04/06 10:14:04;;;;;;;13.40;3.30;;;;;;;9.30;87.30;99980.72;5056010;28;20056;-80
2022/04/06 10:16:31;;;;;;;14.98;3.00;;;;;;;9.31;85.71;99968.81;5056863;28;20037;-81
2022/04/06 10:18:57;;;;;;;13.77;2.78;;;;;;;9.35;85.46;99972.69;5054838;28;20054;-81
2022/04/06 10:21:55;;;;;;;13.88;2.92;;;;;;;9.36;85.99;99982.44;5055638;28;20116;-80
2022/04/06 10:24:32;;;;;;;13.80;3.00;;;;;;;9.30;85.94;99978.00;5035940;28;20033;-79
2022/04/06 10:27:09;;;;;;;11.23;2.55;;;;;;;9.27;84.40;99975.78;5033708;28;20116;-79
2022/04/06 10:30:07;;;;;;;13.25;3.40;;;;;;;9.30;86.27;99977.16;5033194;28;20029;-78
2022/04/06 10:32:34;;;;;;;8.00;3.20;;;;;;;9.21;86.00;99979.44;5036616;28;20039;-79
2022/04/06 10:35:22;;;;;;;11.05;3.50;;;;;;;9.25;86.09;99980.56;5052427;28;20032;-78
2022/04/06 10:37:56;;;;;;;10.02;3.42;;;;;;;9.31;84.26;99973.41;5054157;28;20121;-79
2022/04/06 10:40:25;;;;;;;22.55;7.70;;;;;;;9.28;85.74;99972.00;5052912;28;20033;-81
2022/04/06 10:42:51;;;;;;;12.75;4.13;;;;;;;9.25;85.52;99966.28;5048881;28;20035;-79
2022/04/06 10:45:29;;;;;;;13.85;3.78;;;;;;;9.25;85.35;99967.09;5033017;28;20059;-79
2022/04/06 10:48:13;;;;;;;13.63;3.85;;;;;;;9.30;85.63;99969.91;5033612;28;20392;-79
2022/04/06 10:50:49;;;;;;;9.27;3.25;;;;;;;9.31;85.29;99958.03;5034119;28;20029;-78
2022/04/06 10:53:20;;;;;;;7.97;3.13;;;;;;;9.26;85.30;99954.44;5043475;28;20052;-78
2022/04/06 10:56:16;;;;;;;21.92;6.20;;;;;;;9.20;85.48;99957.00;5053743;28;20044;-80
2022/04/06 10:58:53;;;;;;;13.50;4.05;;;;;;;9.24;85.62;99965.47;5052577;28;20022;-78
2022/04/06 11:01:19;;;;;;;8.65;2.88;;;;;;;9.23;86.56;99951.13;5051305;28;20032;-79
2022/04/06 11:04:09;;;;;;;7.82;3.00;;;;;;;9.30;86.21;99951.00;5039853;28;20103;-79
2022/04/06 11:06:49;;;;;;;10.35;3.40;;;;;;;9.37;85.94;99951.66;5033659;28;20021;-78
2022/04/06 11:12:16;;;;;;;9.25;2.88;;;;;;;9.36;85.80;99936.56;5036369;28;20128;-79
2022/04/06 11:14:44;;;;;;;7.75;2.92;;;;;;;9.41;84.77;99938.53;5053567;28;20056;-79
2022/04/06 11:17:34;;;;;;;6.90;2.72;;;;;;;9.45;85.24;99936.16;5052008;28;20035;-79
2022/04/06 11:20:03;;;;;;;10.00;3.03;;;;;;;9.49;84.11;99929.22;5052490;28;20029;-74
2022/04/06 11:22:29;;;;;;;8.30;2.67;;;;;;;9.50;84.23;99928.97;5047023;28;20029;-73
2022/04/06 11:24:55;;;;;;;9.65;3.08;;;;;;;9.54;84.06;99929.31;5049503;28;20043;-79
2022/04/06 11:27:32;;;;;;;9.57;2.55;;;;;;;9.56;84.33;99924.50;5053268;28;20029;-79
2022/04/06 11:30:04;;;;;;;8.30;2.65;;;;;;;9.65;82.55;99919.53;5053135;28;20548;-79
2022/04/06 11:32:30;;;;;;;8.88;2.70;;;;;;;9.70;82.34;99928.53;5047622;28;20517;-79
2022/04/06 11:35:00;;;;;;;8.05;2.30;;;;;;;9.64;82.75;99924.09;5031718;28;20025;-79
2022/04/06 11:37:26;;;;;;;8.25;2.67;;;;;;;9.68;82.12;99929.88;5033252;28;20042;-80
2022/04/06 11:40:00;;;;;;;8.57;2.58;;;;;;;9.73;82.25;99929.94;5032535;28;20033;-79
2022/04/06 11:42:27;;;;;;;7.47;3.65;;;;;;;9.72;82.03;99925.59;5036634;28;20064;-80
2022/04/06 11:44:56;;;;;;;7.43;3.97;;;;;;;9.70;82.58;99909.63;5038764;28;20036;-79
2022/04/06 11:47:32;;;;;;;7.70;2.60;;;;;;;9.74;82.09;99910.78;5033154;28;20037;-79
2022/04/06 11:49:59;;;;;;;8.93;2.72;;;;;;;9.73;81.19;99909.16;5032739;28;20489;-79
2022/04/06 11:52:24;;;;;;;8.73;2.60;;;;;;;9.78;80.64;99910.31;5035787;28;20025;-79
2022/04/06 11:54:54;;;;;;;8.07;2.60;;;;;;;9.78;81.11;99904.91;5051333;28;20522;-79
2022/04/06 11:57:42;;;;;;;8.98;2.67;;;;;;;9.76;80.89;99907.84;5052805;28;20037;-79
2022/04/06 12:00:09;;;;;;;8.23;2.90;;;;;;;9.77;80.77;99898.69;5052593;28;20037;-79
2022/04/06 12:02:55;;;;;;;7.53;2.97;;;;;;;9.84;81.43;99895.81;5045966;28;20090;-79